»·PEaware :: N9298L KTVL-KPVF

N9298L :: KTVL-KPVF

FLIGHT INFORMATION

Flight Status: Arrived
Operator: Privately registered:
United States
More flights under this callsign
Pilot: Brendan O. (14500)
Aircraft: PIPER PA-32 SARATOGA
(PA32)
More flights by this aircraft type
Origin: KTVL Lake Tahoe
United States
Destination: KPVF Placerville
United States
More flights between these airports :: More routes between these airports
Route: +SWR HNW
File this flight plan on PilotEdge
Remarks: Call me out on any mistakes I make!!!
Altitude:
(Current/Filed)
11,000ft
Speed:
(Current/Filed)
145kts
Departed: 24-May-18 08:30 AM
Arrived: 24-May-18 09:06 AM
Distance/Time
Traveled:
37nm/0:36
Distance/Time
To Go:
Arrived

Flight Plot

Page will automatically refresh every two minutes.

Flight plan parsing failed; only flown route is shown


Map Options




Map Legend


Flown Route
Filed Route
Departure Airport
Arrival Airport
Navaid (VOR, NDB)
Fix

Horizontal Profiles

Position Reports

Time Latitude Longitude Heading Altitude Ground
Speed
24-May-18 08:16 38.892773 -119.997893 14 6274ft 0kts
24-May-18 08:17 38.892773 -119.997893 14 6274ft 0kts
24-May-18 08:18 38.892773 -119.997893 16 6274ft 0kts
24-May-18 08:19 38.892773 -119.997893 14 6274ft 0kts
24-May-18 08:20 38.892850 -119.997859 23 6274ft 0kts
24-May-18 08:21 38.890373 -119.997347 192 6265ft 19kts
24-May-18 08:22 38.883630 -119.999342 191 6259ft 21kts
24-May-18 08:23 38.882703 -119.999458 112 6258ft 0kts
24-May-18 08:24 38.882703 -119.999458 112 6258ft 0kts
24-May-18 08:25 38.882703 -119.999458 112 6258ft 0kts
24-May-18 08:26 38.882703 -119.999458 112 6258ft 0kts
24-May-18 08:27 38.882703 -119.999458 112 6258ft 0kts
24-May-18 08:28 38.882703 -119.999458 112 6258ft 0kts
24-May-18 08:29 38.882703 -119.999458 112 6258ft 0kts
24-May-18 08:30 38.889761 -119.996437 12 6262ft 106kts
24-May-18 08:31 38.923442 -119.987723 12 6545ft 127kts
24-May-18 08:32 38.956574 -119.994798 345 7091ft 123kts
24-May-18 08:33 38.989682 -120.008017 334 7530ft 125kts
24-May-18 08:34 39.013730 -120.039365 308 8002ft 123kts
24-May-18 08:35 39.036952 -120.072662 307 8812ft 126kts
24-May-18 08:36 39.060858 -120.107792 310 9615ft 134kts
24-May-18 08:37 39.087319 -120.142730 310 10373ft 137kts
24-May-18 08:38 39.112263 -120.178940 310 10958ft 145kts
24-May-18 08:39 39.132774 -120.206083 312 10995ft 163kts
24-May-18 08:40 39.156690 -120.237580 311 11064ft 170kts
24-May-18 08:41 39.187353 -120.284575 284 11046ft 172kts
24-May-18 08:42 39.163010 -120.321428 192 11009ft 150kts
24-May-18 08:43 39.123034 -120.336546 194 10998ft 150kts
24-May-18 08:44 39.083621 -120.353914 197 11004ft 150kts
24-May-18 08:45 39.051066 -120.388389 225 11026ft 167kts
24-May-18 08:46 39.018627 -120.436988 225 11007ft 187kts
24-May-18 08:47 38.983953 -120.487751 218 10946ft 190kts
24-May-18 08:48 38.945314 -120.533534 218 10979ft 190kts
24-May-18 08:49 38.905904 -120.579364 216 10988ft 191kts
24-May-18 08:50 38.869541 -120.624250 225 11030ft 194kts
24-May-18 08:51 38.835968 -120.675296 226 11038ft 195kts
24-May-18 08:52 38.801383 -120.729746 227 10937ft 199kts
24-May-18 08:53 38.763921 -120.787013 226 10134ft 214kts
24-May-18 08:54 38.724223 -120.844055 224 9404ft 217kts
24-May-18 08:55 38.684179 -120.902301 227 8593ft 220kts
24-May-18 08:56 38.644319 -120.960682 226 7889ft 218kts
24-May-18 08:57 38.597094 -121.006902 202 6963ft 219kts
24-May-18 08:58 38.571998 -121.061081 305 6007ft 197kts
24-May-18 08:59 38.610296 -121.050052 79 5076ft 178kts
24-May-18 09:00 38.626189 -120.995166 52 4531ft 161kts
24-May-18 09:01 38.647875 -120.945699 61 4167ft 158kts
24-May-18 09:02 38.667832 -120.896368 62 3995ft 151kts
24-May-18 09:03 38.685860 -120.847995 63 3939ft 148kts
24-May-18 09:04 38.702144 -120.807096 57 3385ft 112kts
24-May-18 09:05 38.715749 -120.773678 58 2800ft 99kts
24-May-18 09:06 38.726281 -120.748094 65 2561ft 27kts

Navigation Log

Ident Type
Flight plan parsing failed, navigation log unavailable